الصفحة الرئيسية
METAR-TAF:

METAR-TAF

مطار :

Mae Sot, تايلاند

دائرة عرض: 16-40N, خط طول: 098-33E, ارتفاع: 196 متر

مراقبة الطقس الحالي

تاريخ ووقت الإصدار 13 دقيقة قبل الساعة 23:00UTC
ريح 4 عقدة من الجنوب/الجنوب الغربي
درجة الحرارة 23°درجة مئوية
الرطوبة 100%
ضغط 1006 hPa
الرؤية: 5000 متر
غيوم متفرقة على ارتفاع 2100 قدم
غيوم مفككة على ارتفاع 4000 قدم
ملبد بالغيوم على ارتفاع 7000 قدم
مطر

METAR: VTPM 252300Z 20004KT 5000 RA SCT021 BKN040 OVC070 23/23 Q1006 NOSIG

زمن: 06:13 (23:13 UTC)

توقعات

تاريخ ووقت الإصدار 6ساعات و 13 دقيقة قبل الساعة 17:00UTC
التوقعات صالحة من25 الساعة 18 UTC إلى 26 الساعة 18 UTC
ريح 5 عقدة من الغرب/الجنوب الغربي
الرؤية 10 كم أو أكثر
غيوم متفرقة على ارتفاع 2000 قدم
مؤقت
من 26 الساعة 06 UTC إلى 26 الساعة 12 UTC
ريح 15 عقدة من الغرب/الجنوب الغربي تتزايد حتى 25 عقدة
الرؤية: 4000 متر
غيوم قليلة على ارتفاع 2000 قدم, مزنة ركامية.
غيوم مفككة على ارتفاع 2500 قدم
عاصفة رعدية, مطر

TAF: VTPM 251700Z 2518/2618 25005KT 9999 SCT020 TEMPO 2606/2612 24015G25KT 4000 TSRA FEW020CB BKN025

أرصاد الطقس والتوقعات من أكثر من 4000 مطار (تقارير الطقس للمطار METAR والتنبؤ بالطقس بالمطارTAF).

المحطات المتاحة هي النقط الصفراء والحمراء على الخريطة.

حرك المؤشر فوق النقطة لمعرفة اسم المحطة.

ثم انقر لمعرفة أرصاد وتوقعات الطقس.

لتغيير الخارطة: اضغط على الأزرار الخضراء مع رمز الصليب الأسود للتكبير. على الزر الأخضر مع شرطة للتصغير، أو على الأسهم الخضراء للخرائط المجاورة.


METAR-TAF: